sensor_id;sensor_type;location;lat;lon;timestamp;P1;durP1;ratioP1;P2;durP2;ratioP2
53439;SDS011;39333;47.044;15.080;2023-02-01T00:00:31;139.30;;;133.50;;
53439;SDS011;39333;47.044;15.080;2023-02-01T00:03:00;142.82;;;136.10;;
53439;SDS011;39333;47.044;15.080;2023-02-01T00:05:27;129.25;;;122.85;;
53439;SDS011;39333;47.044;15.080;2023-02-01T00:07:54;126.30;;;119.75;;
53439;SDS011;39333;47.044;15.080;2023-02-01T00:10:21;133.32;;;127.18;;
53439;SDS011;39333;47.044;15.080;2023-02-01T00:12:48;135.70;;;128.88;;
53439;SDS011;39333;47.044;15.080;2023-02-01T00:15:15;135.38;;;129.13;;
53439;SDS011;39333;47.044;15.080;2023-02-01T00:17:42;135.00;;;128.32;;
53439;SDS011;39333;47.044;15.080;2023-02-01T00:20:09;133.57;;;126.82;;
53439;SDS011;39333;47.044;15.080;2023-02-01T00:22:37;140.40;;;133.52;;
53439;SDS011;39333;47.044;15.080;2023-02-01T00:25:04;142.32;;;135.15;;
53439;SDS011;39333;47.044;15.080;2023-02-01T00:27:31;137.88;;;131.40;;
53439;SDS011;39333;47.044;15.080;2023-02-01T00:29:58;135.57;;;128.95;;
53439;SDS011;39333;47.044;15.080;2023-02-01T00:32:25;139.52;;;132.63;;
53439;SDS011;39333;47.044;15.080;2023-02-01T00:34:51;132.50;;;125.30;;
53439;SDS011;39333;47.044;15.080;2023-02-01T00:37:18;139.00;;;132.48;;
53439;SDS011;39333;47.044;15.080;2023-02-01T00:39:46;142.65;;;135.45;;
53439;SDS011;39333;47.044;15.080;2023-02-01T00:42:13;123.05;;;117.50;;
53439;SDS011;39333;47.044;15.080;2023-02-01T00:44:40;132.45;;;126.38;;
53439;SDS011;39333;47.044;15.080;2023-02-01T00:47:07;127.68;;;121.30;;
53439;SDS011;39333;47.044;15.080;2023-02-01T00:49:34;125.72;;;120.03;;
53439;SDS011;39333;47.044;15.080;2023-02-01T00:52:01;140.90;;;134.43;;
53439;SDS011;39333;47.044;15.080;2023-02-01T00:54:28;122.93;;;117.43;;
53439;SDS011;39333;47.044;15.080;2023-02-01T00:56:55;144.60;;;136.45;;
53439;SDS011;39333;47.044;15.080;2023-02-01T00:59:22;128.52;;;122.45;;
53439;SDS011;39333;47.044;15.080;2023-02-01T01:01:48;128.13;;;121.82;;
53439;SDS011;39333;47.044;15.080;2023-02-01T01:04:16;124.68;;;118.78;;
53439;SDS011;39333;47.044;15.080;2023-02-01T01:06:43;124.80;;;119.00;;
53439;SDS011;39333;47.044;15.080;2023-02-01T01:09:10;136.18;;;129.98;;
53439;SDS011;39333;47.044;15.080;2023-02-01T01:11:37;127.50;;;121.85;;
53439;SDS011;39333;47.044;15.080;2023-02-01T01:14:05;135.00;;;128.45;;
53439;SDS011;39333;47.044;15.080;2023-02-01T01:16:34;132.48;;;126.40;;
53439;SDS011;39333;47.044;15.080;2023-02-01T01:19:02;129.80;;;123.63;;
53439;SDS011;39333;47.044;15.080;2023-02-01T01:21:29;125.03;;;119.22;;
53439;SDS011;39333;47.044;15.080;2023-02-01T01:23:57;128.40;;;121.93;;
53439;SDS011;39333;47.044;15.080;2023-02-01T01:26:25;134.25;;;127.70;;
53439;SDS011;39333;47.044;15.080;2023-02-01T01:28:54;129.65;;;123.35;;
53439;SDS011;39333;47.044;15.080;2023-02-01T01:31:22;134.23;;;128.07;;
53439;SDS011;39333;47.044;15.080;2023-02-01T01:33:50;126.70;;;120.80;;
53439;SDS011;39333;47.044;15.080;2023-02-01T01:36:18;138.75;;;132.25;;
53439;SDS011;39333;47.044;15.080;2023-02-01T01:38:46;138.32;;;132.20;;
53439;SDS011;39333;47.044;15.080;2023-02-01T01:41:15;139.70;;;132.38;;
53439;SDS011;39333;47.044;15.080;2023-02-01T01:46:17;135.65;;;129.88;;
53439;SDS011;39333;47.044;15.080;2023-02-01T01:48:48;127.40;;;121.55;;
53439;SDS011;39333;47.044;15.080;2023-02-01T01:51:20;127.22;;;121.40;;
53439;SDS011;39333;47.044;15.080;2023-02-01T01:53:54;139.93;;;132.57;;
53439;SDS011;39333;47.044;15.080;2023-02-01T01:56:44;145.50;;;138.35;;
53439;SDS011;39333;47.044;15.080;2023-02-01T01:59:15;124.72;;;118.90;;
53439;SDS011;39333;47.044;15.080;2023-02-01T02:01:43;131.20;;;124.82;;
53439;SDS011;39333;47.044;15.080;2023-02-01T02:04:10;126.13;;;120.13;;
53439;SDS011;39333;47.044;15.080;2023-02-01T02:06:51;136.93;;;130.38;;
53439;SDS011;39333;47.044;15.080;2023-02-01T02:14:18;122.30;;;116.60;;
53439;SDS011;39333;47.044;15.080;2023-02-01T02:31:24;115.80;;;110.30;;
53439;SDS011;39333;47.044;15.080;2023-02-01T02:41:40;135.77;;;129.35;;
53439;SDS011;39333;47.044;15.080;2023-02-01T02:47:27;119.15;;;113.85;;
53439;SDS011;39333;47.044;15.080;2023-02-01T02:50:23;124.10;;;118.60;;
53439;SDS011;39333;47.044;15.080;2023-02-01T02:53:13;125.43;;;119.75;;
53439;SDS011;39333;47.044;15.080;2023-02-01T02:56:04;134.50;;;128.18;;
53439;SDS011;39333;47.044;15.080;2023-02-01T02:58:52;121.82;;;115.45;;
53439;SDS011;39333;47.044;15.080;2023-02-01T03:01:39;121.45;;;116.05;;
53439;SDS011;39333;47.044;15.080;2023-02-01T03:06:53;124.55;;;117.32;;
53439;SDS011;39333;47.044;15.080;2023-02-01T03:09:26;128.57;;;123.07;;
53439;SDS011;39333;47.044;15.080;2023-02-01T03:12:01;130.63;;;124.65;;
53439;SDS011;39333;47.044;15.080;2023-02-01T03:14:54;136.43;;;129.93;;
53439;SDS011;39333;47.044;15.080;2023-02-01T03:17:27;130.73;;;124.75;;
53439;SDS011;39333;47.044;15.080;2023-02-01T03:19:59;119.80;;;114.63;;
53439;SDS011;39333;47.044;15.080;2023-02-01T03:22:30;131.02;;;124.65;;
53439;SDS011;39333;47.044;15.080;2023-02-01T03:25:10;139.40;;;132.55;;
53439;SDS011;39333;47.044;15.080;2023-02-01T03:30:30;124.10;;;118.00;;
53439;SDS011;39333;47.044;15.080;2023-02-01T03:33:02;125.43;;;119.45;;
53439;SDS011;39333;47.044;15.080;2023-02-01T03:46:30;130.27;;;123.45;;
53439;SDS011;39333;47.044;15.080;2023-02-01T03:49:02;122.43;;;117.20;;
53439;SDS011;39333;47.044;15.080;2023-02-01T03:51:35;131.93;;;125.97;;
53439;SDS011;39333;47.044;15.080;2023-02-01T03:54:05;125.07;;;119.55;;
53439;SDS011;39333;47.044;15.080;2023-02-01T03:56:36;131.05;;;125.15;;
53439;SDS011;39333;47.044;15.080;2023-02-01T03:59:05;124.32;;;117.90;;
53439;SDS011;39333;47.044;15.080;2023-02-01T04:01:34;127.60;;;121.78;;
53439;SDS011;39333;47.044;15.080;2023-02-01T04:04:02;120.57;;;114.60;;
53439;SDS011;39333;47.044;15.080;2023-02-01T04:06:29;135.75;;;129.80;;
53439;SDS011;39333;47.044;15.080;2023-02-01T04:09:01;120.93;;;115.22;;
53439;SDS011;39333;47.044;15.080;2023-02-01T04:11:29;130.68;;;125.03;;
53439;SDS011;39333;47.044;15.080;2023-02-01T04:13:56;115.47;;;110.43;;
53439;SDS011;39333;47.044;15.080;2023-02-01T04:16:22;132.18;;;126.25;;
53439;SDS011;39333;47.044;15.080;2023-02-01T04:18:49;129.13;;;122.75;;
53439;SDS011;39333;47.044;15.080;2023-02-01T04:21:16;123.32;;;117.47;;
53439;SDS011;39333;47.044;15.080;2023-02-01T04:23:43;131.38;;;123.47;;
53439;SDS011;39333;47.044;15.080;2023-02-01T04:26:10;125.57;;;119.65;;
53439;SDS011;39333;47.044;15.080;2023-02-01T04:28:37;127.57;;;119.50;;
53439;SDS011;39333;47.044;15.080;2023-02-01T04:31:04;131.73;;;122.43;;
53439;SDS011;39333;47.044;15.080;2023-02-01T04:33:31;135.02;;;125.43;;
53439;SDS011;39333;47.044;15.080;2023-02-01T04:35:58;137.50;;;130.32;;
53439;SDS011;39333;47.044;15.080;2023-02-01T04:38:25;122.25;;;116.30;;
53439;SDS011;39333;47.044;15.080;2023-02-01T04:40:53;125.30;;;118.20;;
53439;SDS011;39333;47.044;15.080;2023-02-01T04:43:20;125.70;;;118.97;;
53439;SDS011;39333;47.044;15.080;2023-02-01T04:45:50;133.88;;;126.93;;
53439;SDS011;39333;47.044;15.080;2023-02-01T04:48:18;129.65;;;121.80;;
53439;SDS011;39333;47.044;15.080;2023-02-01T04:50:46;145.00;;;136.57;;
53439;SDS011;39333;47.044;15.080;2023-02-01T04:53:15;127.65;;;121.50;;
53439;SDS011;39333;47.044;15.080;2023-02-01T04:55:42;133.32;;;127.38;;
53439;SDS011;39333;47.044;15.080;2023-02-01T04:58:10;125.60;;;118.65;;
53439;SDS011;39333;47.044;15.080;2023-02-01T05:00:37;126.97;;;121.25;;
53439;SDS011;39333;47.044;15.080;2023-02-01T05:03:04;131.60;;;125.65;;
53439;SDS011;39333;47.044;15.080;2023-02-01T05:05:31;128.75;;;122.20;;
53439;SDS011;39333;47.044;15.080;2023-02-01T05:07:58;125.22;;;119.38;;
53439;SDS011;39333;47.044;15.080;2023-02-01T05:10:25;135.20;;;128.73;;
53439;SDS011;39333;47.044;15.080;2023-02-01T05:12:52;138.07;;;131.23;;
53439;SDS011;39333;47.044;15.080;2023-02-01T05:15:38;131.82;;;125.13;;
53439;SDS011;39333;47.044;15.080;2023-02-01T05:18:05;130.95;;;124.40;;
53439;SDS011;39333;47.044;15.080;2023-02-01T05:20:32;135.90;;;129.40;;
53439;SDS011;39333;47.044;15.080;2023-02-01T05:22:59;131.80;;;125.22;;
53439;SDS011;39333;47.044;15.080;2023-02-01T05:25:26;129.20;;;122.75;;
53439;SDS011;39333;47.044;15.080;2023-02-01T05:27:53;130.45;;;123.55;;
53439;SDS011;39333;47.044;15.080;2023-02-01T05:30:20;126.53;;;120.07;;
53439;SDS011;39333;47.044;15.080;2023-02-01T05:32:51;132.32;;;124.47;;
53439;SDS011;39333;47.044;15.080;2023-02-01T05:35:19;141.77;;;134.07;;
53439;SDS011;39333;47.044;15.080;2023-02-01T05:37:46;130.07;;;123.03;;
53439;SDS011;39333;47.044;15.080;2023-02-01T05:40:13;140.38;;;132.90;;
53439;SDS011;39333;47.044;15.080;2023-02-01T05:42:40;138.48;;;131.45;;
53439;SDS011;39333;47.044;15.080;2023-02-01T05:45:07;137.80;;;131.32;;
53439;SDS011;39333;47.044;15.080;2023-02-01T05:47:34;126.32;;;120.20;;
53439;SDS011;39333;47.044;15.080;2023-02-01T05:50:02;133.55;;;126.97;;
53439;SDS011;39333;47.044;15.080;2023-02-01T05:52:30;137.77;;;130.55;;
53439;SDS011;39333;47.044;15.080;2023-02-01T05:54:57;138.48;;;131.73;;
53439;SDS011;39333;47.044;15.080;2023-02-01T05:57:24;128.70;;;122.32;;
53439;SDS011;39333;47.044;15.080;2023-02-01T05:59:51;137.20;;;130.27;;
53439;SDS011;39333;47.044;15.080;2023-02-01T06:02:18;139.63;;;132.40;;
53439;SDS011;39333;47.044;15.080;2023-02-01T06:04:45;147.32;;;139.05;;
53439;SDS011;39333;47.044;15.080;2023-02-01T06:07:12;128.95;;;121.25;;
53439;SDS011;39333;47.044;15.080;2023-02-01T06:09:39;134.55;;;126.30;;
53439;SDS011;39333;47.044;15.080;2023-02-01T06:12:06;141.88;;;134.68;;
53439;SDS011;39333;47.044;15.080;2023-02-01T06:14:33;128.38;;;122.25;;
53439;SDS011;39333;47.044;15.080;2023-02-01T06:17:00;137.02;;;128.65;;
53439;SDS011;39333;47.044;15.080;2023-02-01T06:19:27;129.73;;;123.15;;
53439;SDS011;39333;47.044;15.080;2023-02-01T06:21:54;127.20;;;120.22;;
53439;SDS011;39333;47.044;15.080;2023-02-01T06:24:20;128.32;;;122.03;;
53439;SDS011;39333;47.044;15.080;2023-02-01T06:26:50;132.57;;;125.78;;
53439;SDS011;39333;47.044;15.080;2023-02-01T06:29:17;120.22;;;114.70;;
53439;SDS011;39333;47.044;15.080;2023-02-01T06:31:43;124.00;;;118.20;;
53439;SDS011;39333;47.044;15.080;2023-02-01T06:34:10;115.03;;;109.63;;
53439;SDS011;39333;47.044;15.080;2023-02-01T06:36:37;124.40;;;118.53;;
53439;SDS011;39333;47.044;15.080;2023-02-01T06:39:04;127.93;;;122.07;;
53439;SDS011;39333;47.044;15.080;2023-02-01T06:41:31;122.47;;;117.07;;
53439;SDS011;39333;47.044;15.080;2023-02-01T06:44:01;126.43;;;120.82;;
53439;SDS011;39333;47.044;15.080;2023-02-01T06:46:28;119.38;;;114.25;;
53439;SDS011;39333;47.044;15.080;2023-02-01T06:48:55;133.10;;;126.80;;
53439;SDS011;39333;47.044;15.080;2023-02-01T06:51:26;138.25;;;132.15;;
53439;SDS011;39333;47.044;15.080;2023-02-01T06:53:54;122.15;;;116.03;;
53439;SDS011;39333;47.044;15.080;2023-02-01T06:56:22;131.80;;;125.90;;
53439;SDS011;39333;47.044;15.080;2023-02-01T06:58:49;128.25;;;122.22;;
53439;SDS011;39333;47.044;15.080;2023-02-01T07:01:16;133.07;;;127.40;;
53439;SDS011;39333;47.044;15.080;2023-02-01T07:03:46;126.20;;;120.45;;
53439;SDS011;39333;47.044;15.080;2023-02-01T07:06:14;131.80;;;125.30;;
53439;SDS011;39333;47.044;15.080;2023-02-01T07:08:41;122.22;;;116.80;;
53439;SDS011;39333;47.044;15.080;2023-02-01T07:11:09;123.47;;;117.65;;
53439;SDS011;39333;47.044;15.080;2023-02-01T07:13:37;124.22;;;118.70;;
53439;SDS011;39333;47.044;15.080;2023-02-01T07:16:10;124.88;;;118.97;;
53439;SDS011;39333;47.044;15.080;2023-02-01T07:18:39;124.57;;;118.85;;
53439;SDS011;39333;47.044;15.080;2023-02-01T07:21:06;124.55;;;118.90;;
53439;SDS011;39333;47.044;15.080;2023-02-01T07:23:34;130.07;;;123.80;;
53439;SDS011;39333;47.044;15.080;2023-02-01T07:26:03;128.80;;;122.90;;
53439;SDS011;39333;47.044;15.080;2023-02-01T07:28:31;144.05;;;136.80;;
53439;SDS011;39333;47.044;15.080;2023-02-01T07:31:07;125.13;;;119.32;;
53439;SDS011;39333;47.044;15.080;2023-02-01T07:33:35;146.95;;;139.27;;
53439;SDS011;39333;47.044;15.080;2023-02-01T07:36:03;128.60;;;122.38;;
53439;SDS011;39333;47.044;15.080;2023-02-01T07:38:32;144.25;;;136.85;;
53439;SDS011;39333;47.044;15.080;2023-02-01T07:41:00;143.35;;;136.45;;
53439;SDS011;39333;47.044;15.080;2023-02-01T07:43:28;124.95;;;119.80;;
53439;SDS011;39333;47.044;15.080;2023-02-01T07:45:55;135.23;;;128.20;;
53439;SDS011;39333;47.044;15.080;2023-02-01T07:48:23;145.65;;;139.23;;
53439;SDS011;39333;47.044;15.080;2023-02-01T07:51:02;146.70;;;139.60;;
53439;SDS011;39333;47.044;15.080;2023-02-01T07:53:31;145.45;;;139.10;;
53439;SDS011;39333;47.044;15.080;2023-02-01T07:55:59;135.07;;;129.10;;
53439;SDS011;39333;47.044;15.080;2023-02-01T07:58:27;134.98;;;128.93;;
53439;SDS011;39333;47.044;15.080;2023-02-01T08:00:54;149.02;;;143.00;;
53439;SDS011;39333;47.044;15.080;2023-02-01T08:03:40;138.23;;;132.45;;
53439;SDS011;39333;47.044;15.080;2023-02-01T08:06:07;137.30;;;131.75;;
53439;SDS011;39333;47.044;15.080;2023-02-01T08:08:35;147.57;;;141.25;;
53439;SDS011;39333;47.044;15.080;2023-02-01T08:11:02;149.43;;;142.45;;
53439;SDS011;39333;47.044;15.080;2023-02-01T08:13:31;157.07;;;150.10;;
53439;SDS011;39333;47.044;15.080;2023-02-01T08:15:59;163.88;;;156.93;;
53439;SDS011;39333;47.044;15.080;2023-02-01T08:18:27;152.85;;;146.43;;
53439;SDS011;39333;47.044;15.080;2023-02-01T08:20:54;150.63;;;144.32;;
53439;SDS011;39333;47.044;15.080;2023-02-01T08:23:22;149.90;;;143.75;;
53439;SDS011;39333;47.044;15.080;2023-02-01T08:25:49;161.85;;;154.73;;
53439;SDS011;39333;47.044;15.080;2023-02-01T08:28:16;152.40;;;146.20;;
53439;SDS011;39333;47.044;15.080;2023-02-01T08:30:43;164.23;;;157.05;;
53439;SDS011;39333;47.044;15.080;2023-02-01T08:33:10;155.82;;;149.48;;
53439;SDS011;39333;47.044;15.080;2023-02-01T08:35:38;153.05;;;146.55;;
53439;SDS011;39333;47.044;15.080;2023-02-01T08:38:09;161.88;;;154.85;;
53439;SDS011;39333;47.044;15.080;2023-02-01T08:40:36;160.43;;;153.88;;
53439;SDS011;39333;47.044;15.080;2023-02-01T08:43:03;157.65;;;150.98;;
53439;SDS011;39333;47.044;15.080;2023-02-01T08:45:30;151.13;;;144.98;;
53439;SDS011;39333;47.044;15.080;2023-02-01T08:47:57;156.40;;;149.93;;
53439;SDS011;39333;47.044;15.080;2023-02-01T08:50:24;149.13;;;143.30;;
53439;SDS011;39333;47.044;15.080;2023-02-01T08:52:52;151.38;;;144.95;;
53439;SDS011;39333;47.044;15.080;2023-02-01T08:55:20;154.40;;;147.77;;
53439;SDS011;39333;47.044;15.080;2023-02-01T08:57:47;157.95;;;151.15;;
53439;SDS011;39333;47.044;15.080;2023-02-01T09:00:15;150.38;;;142.70;;
53439;SDS011;39333;47.044;15.080;2023-02-01T09:02:43;159.75;;;152.55;;
53439;SDS011;39333;47.044;15.080;2023-02-01T09:05:11;150.13;;;143.00;;
53439;SDS011;39333;47.044;15.080;2023-02-01T09:07:38;147.55;;;140.57;;
53439;SDS011;39333;47.044;15.080;2023-02-01T09:10:05;149.20;;;142.40;;
53439;SDS011;39333;47.044;15.080;2023-02-01T09:12:33;145.88;;;139.80;;
53439;SDS011;39333;47.044;15.080;2023-02-01T09:15:01;163.73;;;156.10;;
53439;SDS011;39333;47.044;15.080;2023-02-01T09:17:28;161.07;;;154.18;;
53439;SDS011;39333;47.044;15.080;2023-02-01T09:19:56;162.77;;;155.57;;
53439;SDS011;39333;47.044;15.080;2023-02-01T09:22:23;157.07;;;150.40;;
53439;SDS011;39333;47.044;15.080;2023-02-01T09:24:50;155.70;;;148.05;;
53439;SDS011;39333;47.044;15.080;2023-02-01T09:27:20;154.77;;;148.20;;
53439;SDS011;39333;47.044;15.080;2023-02-01T09:29:47;158.93;;;152.65;;
53439;SDS011;39333;47.044;15.080;2023-02-01T09:32:19;166.48;;;159.38;;
53439;SDS011;39333;47.044;15.080;2023-02-01T09:34:49;156.93;;;150.13;;
53439;SDS011;39333;47.044;15.080;2023-02-01T09:37:16;158.27;;;151.70;;
53439;SDS011;39333;47.044;15.080;2023-02-01T09:39:43;169.60;;;162.65;;
53439;SDS011;39333;47.044;15.080;2023-02-01T09:45:06;175.32;;;168.10;;
53439;SDS011;39333;47.044;15.080;2023-02-01T09:47:56;167.30;;;160.27;;
53439;SDS011;39333;47.044;15.080;2023-02-01T09:50:32;161.95;;;155.57;;
53439;SDS011;39333;47.044;15.080;2023-02-01T09:55:49;175.05;;;167.90;;
53439;SDS011;39333;47.044;15.080;2023-02-01T10:00:59;172.77;;;165.70;;
53439;SDS011;39333;47.044;15.080;2023-02-01T10:03:28;169.40;;;162.40;;
53439;SDS011;39333;47.044;15.080;2023-02-01T10:14:26;176.27;;;169.18;;
53439;SDS011;39333;47.044;15.080;2023-02-01T10:28:20;177.48;;;170.07;;
53439;SDS011;39333;47.044;15.080;2023-02-01T10:30:51;172.05;;;164.80;;
53439;SDS011;39333;47.044;15.080;2023-02-01T10:33:24;175.65;;;168.55;;
53439;SDS011;39333;47.044;15.080;2023-02-01T10:36:08;161.95;;;155.23;;
53439;SDS011;39333;47.044;15.080;2023-02-01T10:38:43;164.27;;;157.30;;
53439;SDS011;39333;47.044;15.080;2023-02-01T10:41:15;165.25;;;158.55;;
53439;SDS011;39333;47.044;15.080;2023-02-01T10:43:44;164.77;;;157.82;;
53439;SDS011;39333;47.044;15.080;2023-02-01T10:46:14;171.05;;;164.35;;
53439;SDS011;39333;47.044;15.080;2023-02-01T10:48:43;176.07;;;168.48;;
53439;SDS011;39333;47.044;15.080;2023-02-01T10:51:12;169.27;;;162.48;;
53439;SDS011;39333;47.044;15.080;2023-02-01T10:56:26;171.10;;;164.20;;
53439;SDS011;39333;47.044;15.080;2023-02-01T10:59:02;163.63;;;157.20;;
53439;SDS011;39333;47.044;15.080;2023-02-01T11:01:40;161.75;;;155.30;;
53439;SDS011;39333;47.044;15.080;2023-02-01T11:04:15;165.65;;;158.77;;
53439;SDS011;39333;47.044;15.080;2023-02-01T11:09:48;169.20;;;162.40;;
53439;SDS011;39333;47.044;15.080;2023-02-01T11:15:00;167.43;;;160.98;;
53439;SDS011;39333;47.044;15.080;2023-02-01T11:17:42;163.30;;;156.88;;
53439;SDS011;39333;47.044;15.080;2023-02-01T11:20:18;164.95;;;158.20;;
53439;SDS011;39333;47.044;15.080;2023-02-01T11:22:56;167.40;;;160.70;;
53439;SDS011;39333;47.044;15.080;2023-02-01T11:25:24;163.30;;;156.60;;
53439;SDS011;39333;47.044;15.080;2023-02-01T11:27:53;160.68;;;154.23;;
53439;SDS011;39333;47.044;15.080;2023-02-01T11:30:34;158.32;;;152.23;;
53439;SDS011;39333;47.044;15.080;2023-02-01T11:33:07;168.77;;;162.02;;
53439;SDS011;39333;47.044;15.080;2023-02-01T11:35:40;160.00;;;153.80;;
53439;SDS011;39333;47.044;15.080;2023-02-01T11:38:28;156.88;;;150.80;;
53439;SDS011;39333;47.044;15.080;2023-02-01T11:41:13;156.55;;;150.18;;
53439;SDS011;39333;47.044;15.080;2023-02-01T11:43:57;170.40;;;163.68;;
53439;SDS011;39333;47.044;15.080;2023-02-01T11:46:30;170.50;;;163.80;;
53439;SDS011;39333;47.044;15.080;2023-02-01T11:51:58;156.90;;;150.63;;
53439;SDS011;39333;47.044;15.080;2023-02-01T11:54:46;176.02;;;168.52;;
53439;SDS011;39333;47.044;15.080;2023-02-01T12:00:39;161.50;;;155.13;;
53439;SDS011;39333;47.044;15.080;2023-02-01T12:19:30;174.15;;;167.20;;
53439;SDS011;39333;47.044;15.080;2023-02-01T12:24:56;163.80;;;157.48;;
53439;SDS011;39333;47.044;15.080;2023-02-01T12:35:28;179.13;;;171.57;;
53439;SDS011;39333;47.044;15.080;2023-02-01T12:43:18;171.77;;;164.63;;
53439;SDS011;39333;47.044;15.080;2023-02-01T12:51:22;169.27;;;162.73;;
53439;SDS011;39333;47.044;15.080;2023-02-01T12:53:55;177.07;;;169.63;;
53439;SDS011;39333;47.044;15.080;2023-02-01T12:56:31;166.68;;;160.15;;
53439;SDS011;39333;47.044;15.080;2023-02-01T12:59:17;180.82;;;173.25;;
53439;SDS011;39333;47.044;15.080;2023-02-01T13:01:58;170.82;;;163.65;;
53439;SDS011;39333;47.044;15.080;2023-02-01T13:12:56;164.45;;;157.93;;
53439;SDS011;39333;47.044;15.080;2023-02-01T13:15:47;162.32;;;156.07;;
53439;SDS011;39333;47.044;15.080;2023-02-01T13:18:21;177.13;;;169.23;;
53439;SDS011;39333;47.044;15.080;2023-02-01T13:20:58;173.95;;;167.05;;
53439;SDS011;39333;47.044;15.080;2023-02-01T13:23:31;166.63;;;160.27;;
53439;SDS011;39333;47.044;15.080;2023-02-01T13:26:01;166.98;;;160.18;;
53439;SDS011;39333;47.044;15.080;2023-02-01T13:28:35;167.15;;;160.55;;
53439;SDS011;39333;47.044;15.080;2023-02-01T13:31:23;161.07;;;154.77;;
53439;SDS011;39333;47.044;15.080;2023-02-01T13:42:54;164.32;;;157.75;;
53439;SDS011;39333;47.044;15.080;2023-02-01T13:45:24;174.95;;;167.85;;
53439;SDS011;39333;47.044;15.080;2023-02-01T13:47:57;170.88;;;164.00;;
53439;SDS011;39333;47.044;15.080;2023-02-01T13:50:30;172.52;;;165.63;;
53439;SDS011;39333;47.044;15.080;2023-02-01T13:58:13;157.25;;;151.13;;
53439;SDS011;39333;47.044;15.080;2023-02-01T14:00:44;168.05;;;161.35;;
53439;SDS011;39333;47.044;15.080;2023-02-01T14:03:12;165.95;;;159.60;;
53439;SDS011;39333;47.044;15.080;2023-02-01T14:08:14;163.40;;;157.10;;
53439;SDS011;39333;47.044;15.080;2023-02-01T14:11:04;172.27;;;165.48;;
53439;SDS011;39333;47.044;15.080;2023-02-01T14:29:02;157.27;;;150.82;;
53439;SDS011;39333;47.044;15.080;2023-02-01T14:32:00;156.43;;;150.32;;
53439;SDS011;39333;47.044;15.080;2023-02-01T14:34:37;165.45;;;159.00;;
53439;SDS011;39333;47.044;15.080;2023-02-01T14:37:11;163.60;;;156.93;;
53439;SDS011;39333;47.044;15.080;2023-02-01T14:45:51;166.38;;;159.15;;
53439;SDS011;39333;47.044;15.080;2023-02-01T14:50:34;172.02;;;164.88;;
53439;SDS011;39333;47.044;15.080;2023-02-01T14:55:59;157.30;;;150.82;;
53439;SDS011;39333;47.044;15.080;2023-02-01T15:01:02;162.13;;;155.55;;
53439;SDS011;39333;47.044;15.080;2023-02-01T15:09:11;151.15;;;144.77;;
53439;SDS011;39333;47.044;15.080;2023-02-01T15:11:58;166.20;;;159.10;;
53439;SDS011;39333;47.044;15.080;2023-02-01T15:14:26;163.55;;;157.15;;
53439;SDS011;39333;47.044;15.080;2023-02-01T15:16:55;159.05;;;151.82;;
53439;SDS011;39333;47.044;15.080;2023-02-01T15:19:25;156.63;;;150.23;;
53439;SDS011;39333;47.044;15.080;2023-02-01T15:21:55;151.88;;;145.75;;
53439;SDS011;39333;47.044;15.080;2023-02-01T15:24:26;147.70;;;141.63;;
53439;SDS011;39333;47.044;15.080;2023-02-01T15:26:58;161.63;;;154.80;;
53439;SDS011;39333;47.044;15.080;2023-02-01T15:29:30;153.98;;;147.48;;
53439;SDS011;39333;47.044;15.080;2023-02-01T15:31:59;161.25;;;154.95;;
53439;SDS011;39333;47.044;15.080;2023-02-01T15:34:47;159.27;;;152.85;;
53439;SDS011;39333;47.044;15.080;2023-02-01T15:37:16;162.10;;;154.30;;
53439;SDS011;39333;47.044;15.080;2023-02-01T15:45:28;154.65;;;148.15;;
53439;SDS011;39333;47.044;15.080;2023-02-01T15:47:58;150.05;;;143.73;;
53439;SDS011;39333;47.044;15.080;2023-02-01T15:50:26;164.55;;;157.35;;
53439;SDS011;39333;47.044;15.080;2023-02-01T15:52:56;154.27;;;148.00;;
53439;SDS011;39333;47.044;15.080;2023-02-01T15:57:53;149.68;;;143.27;;
53439;SDS011;39333;47.044;15.080;2023-02-01T16:00:28;152.40;;;146.25;;
53439;SDS011;39333;47.044;15.080;2023-02-01T16:03:05;160.77;;;154.07;;
53439;SDS011;39333;47.044;15.080;2023-02-01T16:05:53;154.63;;;147.85;;
53439;SDS011;39333;47.044;15.080;2023-02-01T16:08:26;151.88;;;145.88;;
53439;SDS011;39333;47.044;15.080;2023-02-01T16:10:59;152.52;;;146.38;;
53439;SDS011;39333;47.044;15.080;2023-02-01T16:13:28;153.90;;;147.50;;
53439;SDS011;39333;47.044;15.080;2023-02-01T16:15:55;148.60;;;142.32;;
53439;SDS011;39333;47.044;15.080;2023-02-01T16:18:22;145.38;;;139.07;;
53439;SDS011;39333;47.044;15.080;2023-02-01T16:20:49;146.57;;;140.68;;
53439;SDS011;39333;47.044;15.080;2023-02-01T16:23:16;152.80;;;145.98;;
53439;SDS011;39333;47.044;15.080;2023-02-01T16:25:43;148.73;;;142.75;;
53439;SDS011;39333;47.044;15.080;2023-02-01T16:28:10;155.35;;;148.35;;
53439;SDS011;39333;47.044;15.080;2023-02-01T16:30:37;155.00;;;148.32;;
53439;SDS011;39333;47.044;15.080;2023-02-01T16:33:04;155.18;;;148.68;;
53439;SDS011;39333;47.044;15.080;2023-02-01T16:35:34;157.30;;;150.20;;
53439;SDS011;39333;47.044;15.080;2023-02-01T16:38:03;153.80;;;147.27;;
53439;SDS011;39333;47.044;15.080;2023-02-01T16:40:35;150.07;;;143.35;;
53439;SDS011;39333;47.044;15.080;2023-02-01T16:43:07;148.82;;;142.98;;
53439;SDS011;39333;47.044;15.080;2023-02-01T16:45:41;158.68;;;151.68;;
53439;SDS011;39333;47.044;15.080;2023-02-01T16:48:11;155.40;;;148.88;;
53439;SDS011;39333;47.044;15.080;2023-02-01T16:50:43;149.93;;;143.65;;
53439;SDS011;39333;47.044;15.080;2023-02-01T16:53:13;149.85;;;142.80;;
53439;SDS011;39333;47.044;15.080;2023-02-01T16:55:42;157.27;;;150.18;;
53439;SDS011;39333;47.044;15.080;2023-02-01T16:58:10;150.02;;;143.43;;
53439;SDS011;39333;47.044;15.080;2023-02-01T17:00:37;145.88;;;139.43;;
53439;SDS011;39333;47.044;15.080;2023-02-01T17:03:04;148.35;;;141.70;;
53439;SDS011;39333;47.044;15.080;2023-02-01T17:05:32;156.02;;;149.05;;
53439;SDS011;39333;47.044;15.080;2023-02-01T17:08:02;155.02;;;147.68;;
53439;SDS011;39333;47.044;15.080;2023-02-01T17:10:32;156.15;;;149.82;;
53439;SDS011;39333;47.044;15.080;2023-02-01T17:13:00;142.27;;;136.23;;
53439;SDS011;39333;47.044;15.080;2023-02-01T17:15:29;146.68;;;140.07;;
53439;SDS011;39333;47.044;15.080;2023-02-01T17:18:01;143.45;;;137.55;;
53439;SDS011;39333;47.044;15.080;2023-02-01T17:20:29;145.60;;;139.35;;